Time;durP1;ratioP1;P1;durP2;ratioP2;P2;SDS_P1;SDS_P2;PMS_P1;PMS_P2;Temp;Humidity;BMP_temperature;BMP_pressure;BME280_temperature;BME280_humidity;BME280_pressure;Samples;Min_cycle;Max_cycle;Signal;HPM_P1;HPM_P2
2021/10/30 04:01:35;;;;;;;10.80;8.45;;;8.80;99.90;;;;;;5394578;23;20251;-72
2021/10/30 04:04:02;;;;;;;10.15;9.20;;;8.70;99.90;;;;;;4948307;29;20220;-72
2021/10/30 04:06:29;;;;;;;11.70;8.15;;;8.80;99.90;;;;;;4947615;29;20280;-72
2021/10/30 04:08:55;;;;;;;10.70;8.95;;;8.80;99.90;;;;;;4952691;29;20236;-72
2021/10/30 04:11:22;;;;;;;9.88;8.93;;;8.80;99.90;;;;;;4944971;28;20233;-72
2021/10/30 04:13:49;;;;;;;11.68;9.43;;;8.70;99.90;;;;;;4953390;29;20205;-72
2021/10/30 04:16:16;;;;;;;10.55;8.85;;;8.80;99.90;;;;;;4952315;29;20229;-72
2021/10/30 04:18:44;;;;;;;8.98;7.72;;;8.70;99.90;;;;;;4952267;29;20197;-72
2021/10/30 04:21:11;;;;;;;10.40;9.40;;;8.70;99.90;;;;;;4952160;28;20350;-72
2021/10/30 04:23:39;;;;;;;13.80;9.77;;;8.70;99.90;;;;;;4952674;29;20531;-72
2021/10/30 04:26:06;;;;;;;11.00;9.90;;;8.70;99.90;;;;;;4952305;28;20210;-72
2021/10/30 04:28:33;;;;;;;9.95;8.95;;;8.70;99.90;;;;;;4952235;29;20212;-72
2021/10/30 04:31:02;;;;;;;12.98;9.95;;;8.60;99.90;;;;;;4952246;29;20299;-72
2021/10/30 04:33:29;;;;;;;13.85;11.30;;;8.60;99.90;;;;;;4952095;29;20229;-72
2021/10/30 04:35:57;;;;;;;12.07;10.13;;;8.60;99.90;;;;;;4951340;29;20229;-72
2021/10/30 04:38:23;;;;;;;11.70;9.93;;;8.60;99.90;;;;;;4951979;29;20252;-72
2021/10/30 04:40:50;;;;;;;10.57;9.48;;;8.60;99.90;;;;;;4952448;28;20255;-72
2021/10/30 04:43:17;;;;;;;10.68;9.57;;;8.60;99.90;;;;;;4947835;28;20205;-71
2021/10/30 04:45:43;;;;;;;12.52;10.50;;;8.60;99.90;;;;;;4951862;28;20210;-71
2021/10/30 04:48:12;;;;;;;18.55;11.40;;;8.50;99.90;;;;;;4951574;29;20213;-72
2021/10/30 04:50:39;;;;;;;12.23;9.55;;;8.50;99.90;;;;;;4951980;29;20221;-72
2021/10/30 04:53:08;;;;;;;17.10;11.30;;;8.50;99.90;;;;;;4951978;29;20208;-72
2021/10/30 04:55:35;;;;;;;14.77;10.60;;;8.50;99.90;;;;;;4952157;29;20307;-72
2021/10/30 04:58:01;;;;;;;13.90;11.10;;;8.50;99.90;;;;;;4951073;29;20209;-72
2021/10/30 05:00:28;;;;;;;12.80;11.10;;;8.50;99.90;;;;;;4957074;28;20247;-72
2021/10/30 05:02:55;;;;;;;13.35;11.80;;;8.40;99.90;;;;;;4958068;29;20209;-71
2021/10/30 05:05:22;;;;;;;14.57;11.63;;;8.40;99.90;;;;;;4958415;28;20213;-71
2021/10/30 05:07:49;;;;;;;16.48;11.40;;;8.40;99.90;;;;;;4957294;28;20232;-72
2021/10/30 05:10:17;;;;;;;16.27;11.60;;;8.40;99.90;;;;;;4955634;28;20693;-71
2021/10/30 05:12:44;;;;;;;10.52;9.52;;;8.40;99.90;;;;;;4957925;28;20288;-72
2021/10/30 05:15:11;;;;;;;13.07;11.15;;;8.30;99.90;;;;;;4958060;29;20225;-72
2021/10/30 05:17:37;;;;;;;13.55;10.75;;;8.40;99.90;;;;;;4958287;28;20209;-71
2021/10/30 05:20:05;;;;;;;14.80;11.57;;;8.40;99.90;;;;;;4957975;29;20212;-72
2021/10/30 05:22:31;;;;;;;13.75;11.07;;;8.40;99.90;;;;;;4958648;29;20240;-72
2021/10/30 05:24:58;;;;;;;17.08;12.32;;;8.30;99.90;;;;;;4958536;29;20224;-72
2021/10/30 05:27:27;;;;;;;16.40;11.07;;;8.30;99.90;;;;;;4958436;28;20219;-72
2021/10/30 05:29:53;;;;;;;13.85;10.52;;;8.30;99.90;;;;;;4957973;28;20228;-71
2021/10/30 05:32:20;;;;;;;17.67;11.43;;;8.30;99.90;;;;;;4955939;28;20237;-71
2021/10/30 05:34:47;;;;;;;14.57;11.90;;;8.30;99.90;;;;;;4957522;28;20201;-72
2021/10/30 05:37:13;;;;;;;15.43;11.50;;;8.20;99.90;;;;;;4958494;28;20201;-71
2021/10/30 05:39:40;;;;;;;15.40;12.73;;;8.30;99.90;;;;;;4958193;29;20201;-71
2021/10/30 05:42:09;;;;;;;16.50;11.70;;;8.30;99.90;;;;;;4957841;28;20239;-71
2021/10/30 05:44:39;;;;;;;13.50;11.13;;;8.20;99.90;;;;;;4958283;28;20259;-72
2021/10/30 05:47:08;;;;;;;13.45;11.50;;;8.30;99.90;;;;;;4957329;29;20647;-73
2021/10/30 05:49:38;;;;;;;15.35;11.38;;;8.30;99.90;;;;;;4957366;28;20690;-73
2021/10/30 05:52:05;;;;;;;15.73;11.80;;;8.30;99.90;;;;;;4957159;29;20237;-72
2021/10/30 05:54:32;;;;;;;13.93;11.48;;;8.30;99.90;;;;;;4958333;29;20213;-72
2021/10/30 05:56:59;;;;;;;14.07;11.95;;;8.30;99.90;;;;;;4958090;28;20255;-72
2021/10/30 05:59:26;;;;;;;13.55;10.30;;;8.20;99.90;;;;;;4957842;28;20524;-72
2021/10/30 06:01:54;;;;;;;15.95;10.80;;;8.30;99.90;;;;;;4957111;28;20578;-73
2021/10/30 06:04:21;;;;;;;13.82;11.60;;;8.30;99.90;;;;;;4958044;29;20209;-72
2021/10/30 06:06:47;;;;;;;15.15;12.52;;;8.30;99.90;;;;;;4938914;29;20570;-73
2021/10/30 06:09:14;;;;;;;13.20;11.43;;;8.30;99.90;;;;;;4950282;28;20205;-72
2021/10/30 06:11:41;;;;;;;12.75;10.55;;;8.30;99.90;;;;;;4955172;28;20228;-72
2021/10/30 06:14:10;;;;;;;14.23;10.82;;;8.30;99.90;;;;;;4973525;28;20699;-72
2021/10/30 06:16:36;;;;;;;12.90;11.18;;;8.30;99.90;;;;;;4954124;29;20229;-72
2021/10/30 06:19:05;;;;;;;12.02;10.63;;;8.20;99.90;;;;;;4955126;29;20209;-73
2021/10/30 06:21:31;;;;;;;14.50;11.00;;;8.20;99.90;;;;;;4951812;29;20244;-72
2021/10/30 06:23:59;;;;;;;12.93;10.82;;;8.20;99.90;;;;;;4949708;28;20260;-72
2021/10/30 06:26:26;;;;;;;12.70;11.20;;;8.20;99.90;;;;;;4954078;29;20296;-72
2021/10/30 06:28:53;;;;;;;11.35;10.15;;;8.20;99.90;;;;;;4954741;29;20235;-72
2021/10/30 06:31:21;;;;;;;13.43;11.45;;;8.20;99.90;;;;;;4953971;29;20312;-74
2021/10/30 06:33:48;;;;;;;17.13;12.73;;;8.20;99.90;;;;;;4953575;29;20213;-72
2021/10/30 06:36:16;;;;;;;14.10;11.75;;;8.30;99.90;;;;;;4954411;29;20225;-73
2021/10/30 06:38:42;;;;;;;13.68;11.20;;;8.20;99.90;;;;;;4954554;29;20303;-72
2021/10/30 06:41:12;;;;;;;14.98;13.35;;;8.30;99.90;;;;;;4954038;29;20645;-72
2021/10/30 06:43:38;;;;;;;14.35;11.43;;;8.30;99.90;;;;;;4954240;29;20220;-72
2021/10/30 06:46:05;;;;;;;15.88;11.65;;;8.40;99.90;;;;;;4951581;29;20218;-72
2021/10/30 06:48:33;;;;;;;15.18;11.40;;;8.40;99.90;;;;;;4950674;29;20231;-72
2021/10/30 06:51:00;;;;;;;15.73;13.05;;;8.50;99.90;;;;;;4953556;29;20229;-72
2021/10/30 06:53:28;;;;;;;13.50;11.45;;;8.60;99.90;;;;;;4954472;28;20209;-72
2021/10/30 06:55:54;;;;;;;17.08;11.30;;;8.70;99.90;;;;;;4953492;29;20248;-72
2021/10/30 06:58:22;;;;;;;11.75;10.43;;;8.80;99.90;;;;;;4953944;29;20263;-72
2021/10/30 07:00:49;;;;;;;13.07;10.63;;;8.80;99.90;;;;;;4953767;29;20323;-72
2021/10/30 07:03:16;;;;;;;11.60;9.98;;;8.90;99.90;;;;;;4954177;29;20850;-72
2021/10/30 07:05:43;;;;;;;15.23;10.70;;;9.00;99.90;;;;;;4953412;28;20284;-72
2021/10/30 07:08:10;;;;;;;12.13;10.48;;;9.10;99.90;;;;;;4953710;29;20214;-72
2021/10/30 07:10:37;;;;;;;11.38;10.00;;;9.10;99.90;;;;;;4954004;29;20236;-72
2021/10/30 07:13:04;;;;;;;11.45;9.77;;;9.20;99.90;;;;;;4950973;29;20216;-72
2021/10/30 07:15:31;;;;;;;10.60;9.50;;;9.30;99.90;;;;;;4951895;29;20233;-72
2021/10/30 07:17:58;;;;;;;10.65;8.70;;;9.30;99.90;;;;;;4952177;29;20209;-72
2021/10/30 07:20:24;;;;;;;9.88;8.85;;;9.40;99.90;;;;;;4952060;28;20207;-73
2021/10/30 07:22:52;;;;;;;10.32;9.15;;;9.50;99.90;;;;;;4949491;28;20621;-73
2021/10/30 07:25:21;;;;;;;10.77;9.77;;;9.60;99.90;;;;;;4951606;29;20201;-72
2021/10/30 07:27:50;;;;;;;8.98;8.15;;;9.60;99.90;;;;;;4952294;29;20628;-73
2021/10/30 07:30:17;;;;;;;9.27;8.38;;;9.70;99.90;;;;;;4945238;29;20323;-73
2021/10/30 07:32:45;;;;;;;9.18;8.25;;;9.70;99.90;;;;;;4950621;28;20236;-73
2021/10/30 07:35:11;;;;;;;10.57;8.35;;;9.80;99.90;;;;;;4950166;29;20244;-73
2021/10/30 07:37:38;;;;;;;8.23;7.53;;;9.80;99.90;;;;;;4944945;29;20540;-73
2021/10/30 07:40:07;;;;;;;8.68;7.82;;;9.80;99.90;;;;;;4953236;29;20205;-73
2021/10/30 07:42:34;;;;;;;8.98;7.97;;;9.70;99.90;;;;;;4960464;28;20389;-73
2021/10/30 07:45:02;;;;;;;8.98;8.18;;;9.70;99.90;;;;;;4959391;28;20213;-73
2021/10/30 07:47:28;;;;;;;9.18;8.38;;;9.70;99.90;;;;;;4951140;28;20209;-73
2021/10/30 07:49:56;;;;;;;9.25;8.35;;;9.80;99.90;;;;;;4953270;29;20215;-73
2021/10/30 07:52:22;;;;;;;9.55;8.60;;;9.80;99.90;;;;;;4954267;29;20677;-73
2021/10/30 07:54:50;;;;;;;9.50;8.32;;;9.80;99.90;;;;;;4958181;29;20206;-73
2021/10/30 07:57:16;;;;;;;9.15;8.07;;;9.90;99.90;;;;;;4961735;28;20243;-73
2021/10/30 07:59:43;;;;;;;9.90;9.10;;;9.90;99.90;;;;;;4955461;29;20459;-75
2021/10/30 08:02:11;;;;;;;10.07;9.07;;;10.10;99.90;;;;;;4955100;29;20744;-75
2021/10/30 08:04:38;;;;;;;9.43;8.52;;;10.10;99.90;;;;;;4948992;29;20650;-73
2021/10/30 08:07:06;;;;;;;10.82;9.07;;;10.20;99.90;;;;;;4961407;28;20201;-73
2021/10/30 08:09:32;;;;;;;8.93;8.13;;;10.20;99.90;;;;;;4950758;29;20209;-74
2021/10/30 08:11:59;;;;;;;9.15;8.15;;;10.20;99.90;;;;;;4956351;29;20225;-73
2021/10/30 08:14:26;;;;;;;8.82;7.55;;;10.30;99.90;;;;;;4953059;29;20224;-73
2021/10/30 08:16:53;;;;;;;8.13;6.80;;;10.40;99.90;;;;;;4952359;28;20229;-73
2021/10/30 08:19:21;;;;;;;8.15;7.45;;;10.40;99.90;;;;;;4952476;28;20252;-73
2021/10/30 08:21:47;;;;;;;6.95;6.43;;;10.50;99.90;;;;;;4948871;29;20237;-74
2021/10/30 08:24:14;;;;;;;6.35;5.95;;;10.50;99.90;;;;;;4952973;28;20264;-73
2021/10/30 08:26:41;;;;;;;8.38;7.53;;;10.60;99.90;;;;;;4952777;29;20213;-73
2021/10/30 08:29:08;;;;;;;7.57;6.85;;;10.70;99.90;;;;;;4952149;29;20636;-73
2021/10/30 08:31:35;;;;;;;7.65;6.95;;;10.70;99.90;;;;;;4952039;28;20229;-73
2021/10/30 08:34:02;;;;;;;8.75;6.90;;;10.80;99.90;;;;;;4951419;28;20209;-73
2021/10/30 08:36:30;;;;;;;7.63;6.30;;;10.90;99.90;;;;;;4948131;29;20225;-72
2021/10/30 08:38:58;;;;;;;7.15;6.55;;;11.00;99.90;;;;;;4950482;29;20205;-73
2021/10/30 08:41:25;;;;;;;6.50;6.00;;;11.00;99.90;;;;;;4947057;29;20243;-74
2021/10/30 08:43:52;;;;;;;5.60;5.30;;;11.20;99.90;;;;;;4952323;29;20209;-73
2021/10/30 08:46:19;;;;;;;7.65;7.15;;;11.30;99.90;;;;;;4952030;29;20201;-73
2021/10/30 08:48:47;;;;;;;7.43;6.72;;;11.40;99.90;;;;;;4951627;29;20581;-74
2021/10/30 08:51:14;;;;;;;6.10;5.70;;;11.50;99.90;;;;;;4952105;29;20233;-73
2021/10/30 08:53:42;;;;;;;10.05;6.80;;;11.70;99.90;;;;;;4952626;29;20557;-73
2021/10/30 08:56:09;;;;;;;6.20;5.70;;;11.70;99.90;;;;;;4951655;29;20240;-73
2021/10/30 08:58:36;;;;;;;6.50;6.10;;;11.80;99.90;;;;;;4951762;28;20209;-73
2021/10/30 09:01:05;;;;;;;5.83;5.40;;;11.90;99.90;;;;;;4950543;29;20641;-73
2021/10/30 09:03:32;;;;;;;5.90;5.50;;;12.00;99.90;;;;;;4951761;29;20468;-71
2021/10/30 09:06:00;;;;;;;6.57;5.88;;;12.10;99.90;;;;;;4948408;29;20213;-73
2021/10/30 09:08:28;;;;;;;6.13;5.72;;;12.20;99.90;;;;;;4948869;29;21741;-73
2021/10/30 09:10:58;;;;;;;5.87;5.30;;;12.40;99.90;;;;;;4950154;29;20595;-72
2021/10/30 09:13:28;;;;;;;5.90;5.50;;;12.40;99.90;;;;;;4945646;29;20881;-71
2021/10/30 09:15:56;;;;;;;6.13;5.73;;;12.50;99.90;;;;;;4943596;28;20511;-72
2021/10/30 09:18:28;;;;;;;6.43;5.50;;;12.60;99.90;;;;;;4948659;29;20580;-72
2021/10/30 09:20:56;;;;;;;6.07;5.47;;;12.60;99.90;;;;;;4948012;29;20492;-72
2021/10/30 09:23:27;;;;;;;9.20;6.23;;;12.70;99.90;;;;;;4947350;29;20483;-72
2021/10/30 09:25:58;;;;;;;5.73;5.37;;;12.70;99.90;;;;;;4944387;28;20472;-72
2021/10/30 09:28:26;;;;;;;5.70;5.30;;;12.80;99.90;;;;;;4948373;28;20460;-72
2021/10/30 09:30:58;;;;;;;6.73;6.23;;;12.90;99.90;;;;;;4948971;28;20484;-72
2021/10/30 09:33:26;;;;;;;6.70;6.10;;;12.90;99.90;;;;;;4950121;28;20965;-72
2021/10/30 09:35:53;;;;;;;6.77;6.17;;;13.00;99.90;;;;;;4947466;28;20473;-72
2021/10/30 09:38:27;;;;;;;6.00;5.50;;;13.10;99.90;;;;;;4954658;28;20519;-72
2021/10/30 09:40:55;;;;;;;6.10;5.57;;;13.10;99.90;;;;;;4961142;28;20491;-73
2021/10/30 09:43:23;;;;;;;6.63;6.17;;;13.20;99.90;;;;;;4949209;29;20515;-72
2021/10/30 09:45:51;;;;;;;5.77;5.30;;;13.30;99.90;;;;;;4953007;28;20472;-72
2021/10/30 09:48:22;;;;;;;5.47;5.17;;;13.40;99.90;;;;;;4962313;28;20522;-72
2021/10/30 09:50:50;;;;;;;5.47;4.97;;;13.50;99.90;;;;;;4958705;28;20547;-72
2021/10/30 09:53:27;;;;;;;4.93;4.73;;;13.50;99.90;;;;;;4953533;28;20552;-72
2021/10/30 09:55:56;;;;;;;5.40;5.10;;;13.60;99.90;;;;;;4952274;28;20527;-72
2021/10/30 09:58:32;;;;;;;5.17;4.77;;;13.70;99.90;;;;;;4960450;28;20461;-72
2021/10/30 10:01:05;;;;;;;5.30;4.80;;;13.80;99.90;;;;;;4949638;29;20861;-72
2021/10/30 10:03:32;;;;;;;5.20;4.70;;;13.90;99.90;;;;;;4957490;28;20460;-72
2021/10/30 10:06:01;;;;;;;5.57;5.20;;;13.90;99.90;;;;;;4960082;28;20467;-72
2021/10/30 10:08:28;;;;;;;5.60;5.27;;;14.00;99.90;;;;;;4966190;28;20455;-72
2021/10/30 10:10:58;;;;;;;5.60;5.30;;;14.10;99.90;;;;;;4957813;28;20487;-72
2021/10/30 10:13:24;;;;;;;4.50;4.20;;;14.10;99.90;;;;;;4954065;29;20555;-72
2021/10/30 10:15:52;;;;;;;5.57;5.07;;;14.20;99.90;;;;;;4955032;28;20515;-72
2021/10/30 10:18:19;;;;;;;5.23;4.73;;;14.30;99.90;;;;;;4953864;28;20997;-72
2021/10/30 10:20:47;;;;;;;5.90;5.00;;;14.30;99.90;;;;;;4953718;29;20488;-72
2021/10/30 10:23:14;;;;;;;5.57;5.27;;;14.40;99.90;;;;;;4951583;28;20980;-73
2021/10/30 10:25:50;;;;;;;5.23;4.80;;;14.40;99.90;;;;;;4951687;28;20500;-73
2021/10/30 10:28:22;;;;;;;5.50;5.20;;;14.50;99.90;;;;;;4950026;28;20556;-71
2021/10/30 10:31:04;;;;;;;5.40;4.97;;;14.50;99.90;;;;;;4955901;28;20488;-72
2021/10/30 10:33:32;;;;;;;4.97;4.60;;;14.60;99.90;;;;;;4962924;28;20475;-73
2021/10/30 10:36:21;;;;;;;4.83;4.20;;;14.60;99.90;;;;;;4951179;29;20496;-73
2021/10/30 10:39:08;;;;;;;6.63;6.17;;;14.60;99.90;;;;;;4950854;28;20847;-73
2021/10/30 10:41:55;;;;;;;5.23;4.83;;;14.60;99.90;;;;;;4951876;29;21012;-73
2021/10/30 10:44:58;;;;;;;5.40;5.00;;;14.70;99.90;;;;;;4938608;28;20480;-72
2021/10/30 10:48:02;;;;;;;6.03;5.47;;;14.70;99.90;;;;;;4952061;29;20485;-72
2021/10/30 10:50:53;;;;;;;5.83;5.43;;;14.60;99.90;;;;;;4951094;28;20469;-72
2021/10/30 10:53:28;;;;;;;5.93;5.33;;;14.50;99.90;;;;;;4966827;28;20499;-72
2021/10/30 10:56:13;;;;;;;9.77;6.20;;;14.50;99.90;;;;;;4952561;29;20460;-72
2021/10/30 10:59:17;;;;;;;6.43;5.93;;;14.50;99.90;;;;;;4947752;28;20460;-72
2021/10/30 11:02:22;;;;;;;14.10;10.30;;;14.50;99.90;;;;;;4957857;28;20530;-72
2021/10/30 11:05:26;;;;;;;6.90;6.40;;;14.60;99.90;;;;;;4952235;29;20468;-72
2021/10/30 11:08:26;;;;;;;6.30;5.70;;;14.60;99.90;;;;;;4954500;28;20873;-72
2021/10/30 11:11:09;;;;;;;4.03;3.43;;;14.70;99.90;;;;;;4934519;29;20485;-73
2021/10/30 11:13:36;;;;;;;6.63;6.10;;;14.90;99.90;;;;;;4951933;28;20472;-72
2021/10/30 11:16:04;;;;;;;7.60;6.83;;;14.90;99.90;;;;;;4951515;29;20508;-71
2021/10/30 11:18:33;;;;;;;8.53;7.83;;;14.90;99.90;;;;;;4951166;28;20556;-72
2021/10/30 11:21:14;;;;;;;7.73;7.23;;;14.90;99.90;;;;;;4962276;28;20488;-72
2021/10/30 11:23:46;;;;;;;8.30;7.70;;;14.90;99.90;;;;;;4956490;28;20472;-74
2021/10/30 11:26:19;;;;;;;7.20;6.70;;;15.00;99.90;;;;;;4970229;28;20459;-73
2021/10/30 11:28:46;;;;;;;7.87;7.27;;;15.00;99.90;;;;;;4950866;28;20549;-71
2021/10/30 11:31:14;;;;;;;6.77;6.27;;;15.00;99.90;;;;;;4960421;28;20502;-72
2021/10/30 11:33:41;;;;;;;7.23;6.60;;;15.10;99.90;;;;;;4950800;28;20473;-72
2021/10/30 11:36:10;;;;;;;4.80;4.40;;;15.10;99.90;;;;;;4953017;28;20824;-72
2021/10/30 11:38:38;;;;;;;8.07;7.47;;;15.10;99.90;;;;;;4959575;28;20534;-72
2021/10/30 11:41:08;;;;;;;7.83;7.23;;;15.10;99.90;;;;;;4957922;28;20863;-72
2021/10/30 11:43:36;;;;;;;8.33;7.63;;;15.10;99.90;;;;;;4949800;28;20472;-72
2021/10/30 11:46:05;;;;;;;8.40;7.70;;;15.10;99.90;;;;;;4960615;28;20465;-72
2021/10/30 11:48:37;;;;;;;6.63;6.00;;;15.10;99.90;;;;;;4960457;28;20491;-73
2021/10/30 11:51:04;;;;;;;9.37;8.57;;;15.20;99.90;;;;;;4952519;28;20898;-74
2021/10/30 11:53:32;;;;;;;10.10;8.80;;;15.20;99.90;;;;;;4948513;28;20461;-73
2021/10/30 11:56:01;;;;;;;9.47;8.40;;;15.20;99.90;;;;;;4961662;28;20465;-74
2021/10/30 11:58:36;;;;;;;9.50;8.63;;;15.20;99.90;;;;;;4947856;28;20810;-73
2021/10/30 12:01:18;;;;;;;10.00;8.97;;;15.20;99.90;;;;;;4937943;29;20952;-73
2021/10/30 12:03:45;;;;;;;9.80;8.87;;;15.20;99.90;;;;;;4948912;29;20780;-73
2021/10/30 12:06:12;;;;;;;10.67;9.57;;;15.20;99.90;;;;;;4952261;29;20877;-66
2021/10/30 12:08:39;;;;;;;10.90;9.53;;;15.10;99.90;;;;;;4951375;28;20531;-64
2021/10/30 12:11:06;;;;;;;10.77;9.77;;;15.20;99.90;;;;;;4952026;29;21020;-64
2021/10/30 12:13:35;;;;;;;10.17;9.13;;;15.10;99.90;;;;;;4951826;29;20463;-64
2021/10/30 12:16:04;;;;;;;9.43;8.63;;;15.10;99.90;;;;;;4951473;28;20569;-64
2021/10/30 12:18:31;;;;;;;10.27;9.17;;;15.10;99.90;;;;;;4950977;29;20488;-64
2021/10/30 12:20:59;;;;;;;10.20;9.10;;;15.20;99.90;;;;;;4951726;29;20489;-64
2021/10/30 12:23:26;;;;;;;10.70;9.60;;;15.10;99.90;;;;;;4953181;28;20835;-64
2021/10/30 12:26:01;;;;;;;11.87;10.37;;;15.10;99.90;;;;;;4953799;28;20468;-65
2021/10/30 12:28:35;;;;;;;15.00;11.10;;;15.10;99.90;;;;;;4954206;28;20826;-65
2021/10/30 12:31:04;;;;;;;12.30;11.10;;;15.10;99.90;;;;;;4956532;28;20830;-65
2021/10/30 12:33:35;;;;;;;12.67;11.47;;;15.10;99.90;;;;;;4960951;28;20962;-65
2021/10/30 12:36:02;;;;;;;12.00;10.93;;;15.00;99.90;;;;;;4956378;28;20459;-65
2021/10/30 12:38:28;;;;;;;13.03;11.67;;;15.00;99.90;;;;;;4961267;28;20535;-65
2021/10/30 12:40:56;;;;;;;14.40;12.97;;;15.00;99.90;;;;;;4952056;29;20487;-65
2021/10/30 12:43:26;;;;;;;24.57;14.70;;;14.90;99.90;;;;;;4952306;28;20817;-65
2021/10/30 12:45:56;;;;;;;14.77;13.30;;;14.90;99.90;;;;;;4970875;28;20467;-65
2021/10/30 12:48:25;;;;;;;16.00;13.50;;;14.90;99.90;;;;;;4961497;28;20966;-65
2021/10/30 12:50:57;;;;;;;14.10;12.60;;;14.90;99.90;;;;;;4951475;29;20871;-65
2021/10/30 12:53:29;;;;;;;15.87;14.10;;;14.80;99.90;;;;;;4961582;28;20470;-64
2021/10/30 12:56:01;;;;;;;15.90;14.27;;;14.80;99.90;;;;;;4963845;28;20460;-65
2021/10/30 12:58:44;;;;;;;16.67;14.87;;;14.70;99.90;;;;;;4960973;28;20495;-64
2021/10/30 13:01:24;;;;;;;16.47;14.33;;;14.70;99.90;;;;;;4951461;29;20489;-65
2021/10/30 13:04:00;;;;;;;16.37;14.40;;;14.60;99.90;;;;;;4952369;29;20471;-65
2021/10/30 13:06:27;;;;;;;18.03;16.13;;;14.60;99.90;;;;;;4951573;29;20492;-65
2021/10/30 13:08:55;;;;;;;19.20;16.97;;;14.50;99.90;;;;;;4951702;28;20984;-65
2021/10/30 13:11:22;;;;;;;17.83;15.77;;;14.50;99.90;;;;;;4940533;29;21061;-65
2021/10/30 13:13:50;;;;;;;18.87;16.07;;;14.50;99.90;;;;;;4953960;28;20473;-65
2021/10/30 13:16:17;;;;;;;19.07;16.97;;;14.40;99.90;;;;;;4951856;29;20480;-65
2021/10/30 13:18:46;;;;;;;20.40;17.23;;;14.40;99.90;;;;;;4951468;29;20858;-65
2021/10/30 13:21:18;;;;;;;20.00;17.90;;;14.30;99.90;;;;;;4953536;28;20638;-66
2021/10/30 13:23:46;;;;;;;22.97;17.43;;;14.30;99.90;;;;;;4955482;29;20503;-66
2021/10/30 13:26:13;;;;;;;20.07;17.77;;;14.30;99.90;;;;;;4955529;29;20468;-73
2021/10/30 13:28:39;;;;;;;20.47;18.27;;;14.30;99.90;;;;;;4955829;29;20476;-73
2021/10/30 13:31:06;;;;;;;21.03;17.53;;;14.30;99.90;;;;;;4955595;29;20496;-73
2021/10/30 13:33:33;;;;;;;21.60;18.00;;;14.20;99.90;;;;;;4963171;28;20937;-73
2021/10/30 13:36:01;;;;;;;21.87;18.60;;;14.10;99.90;;;;;;4955601;29;20480;-73
2021/10/30 13:38:28;;;;;;;26.63;18.57;;;14.10;99.90;;;;;;4955506;29;21188;-73
2021/10/30 13:40:55;;;;;;;24.03;19.23;;;14.10;99.90;;;;;;4955259;29;20487;-73
2021/10/30 13:43:22;;;;;;;24.60;19.80;;;14.10;99.90;;;;;;4955543;29;20461;-72
2021/10/30 13:45:48;;;;;;;23.50;19.70;;;14.00;99.90;;;;;;4955579;28;20555;-73
2021/10/30 13:48:15;;;;;;;24.97;19.17;;;14.00;99.90;;;;;;4954751;28;20871;-72
2021/10/30 13:50:41;;;;;;;26.07;20.90;;;14.00;99.90;;;;;;4964194;28;20487;-72
2021/10/30 13:53:10;;;;;;;25.40;21.40;;;14.00;99.90;;;;;;4956354;28;20996;-72
2021/10/30 13:55:37;;;;;;;25.80;21.80;;;13.90;99.90;;;;;;4957330;28;20456;-73
2021/10/30 13:58:04;;;;;;;27.13;22.77;;;13.90;99.90;;;;;;4954279;28;20516;-71
2021/10/30 14:00:31;;;;;;;23.70;21.00;;;13.80;99.90;;;;;;4954594;28;20481;-72
2021/10/30 14:02:58;;;;;;;26.87;21.63;;;13.80;99.90;;;;;;4948892;28;20465;-72
2021/10/30 14:05:24;;;;;;;25.30;22.60;;;13.70;99.90;;;;;;4953769;29;20460;-72
2021/10/30 14:07:51;;;;;;;29.00;23.33;;;13.70;99.90;;;;;;4958833;28;20468;-72
2021/10/30 14:10:19;;;;;;;28.50;22.80;;;13.60;99.90;;;;;;4965743;28;20921;-72
2021/10/30 14:12:46;;;;;;;31.13;24.20;;;13.60;99.90;;;;;;4961004;28;20464;-71
2021/10/30 14:15:12;;;;;;;28.93;23.50;;;13.60;99.90;;;;;;4954387;29;20807;-72
2021/10/30 14:17:39;;;;;;;29.00;24.77;;;13.60;99.90;;;;;;4953411;29;20550;-71
2021/10/30 14:20:07;;;;;;;30.83;24.13;;;13.50;99.90;;;;;;4954102;29;20508;-72
2021/10/30 14:22:34;;;;;;;30.73;23.83;;;13.50;99.90;;;;;;4953385;29;21068;-72
2021/10/30 14:25:00;;;;;;;32.07;23.67;;;13.50;99.90;;;;;;4954512;29;20942;-72
2021/10/30 14:27:28;;;;;;;33.43;25.47;;;13.40;99.90;;;;;;4954409;29;20461;-72
2021/10/30 14:29:55;;;;;;;31.53;24.47;;;13.40;99.90;;;;;;4953749;28;20577;-72
2021/10/30 14:32:22;;;;;;;31.13;24.03;;;13.40;99.90;;;;;;4950975;28;20488;-72
2021/10/30 14:34:48;;;;;;;30.47;24.20;;;13.40;99.90;;;;;;4957851;28;20899;-72
2021/10/30 14:37:15;;;;;;;36.33;26.00;;;13.40;99.90;;;;;;4952663;28;20461;-72
2021/10/30 14:39:42;;;;;;;32.87;27.37;;;13.40;99.90;;;;;;4953869;29;20524;-72
2021/10/30 14:42:08;;;;;;;30.07;25.70;;;13.40;99.90;;;;;;4953692;29;20484;-72
2021/10/30 14:44:43;;;;;;;31.73;26.40;;;13.40;99.90;;;;;;4954574;29;20527;-71
2021/10/30 14:47:09;;;;;;;31.67;26.10;;;13.30;99.90;;;;;;4953517;29;20467;-71
2021/10/30 14:49:36;;;;;;;30.50;25.87;;;13.30;99.90;;;;;;4953739;29;20469;-71
2021/10/30 14:52:04;;;;;;;37.70;27.07;;;13.30;99.90;;;;;;4963989;28;20487;-72
2021/10/30 14:54:31;;;;;;;29.80;26.20;;;13.20;99.90;;;;;;4954861;28;20477;-72
2021/10/30 14:56:57;;;;;;;33.30;27.13;;;13.20;99.90;;;;;;4953224;28;20580;-72
2021/10/30 14:59:24;;;;;;;35.57;27.83;;;13.10;99.90;;;;;;4953776;29;20491;-72
2021/10/30 15:01:52;;;;;;;36.73;27.60;;;13.10;99.90;;;;;;4959121;28;20492;-72
2021/10/30 15:04:20;;;;;;;35.43;27.33;;;13.10;99.90;;;;;;4959867;28;20461;-72
2021/10/30 15:06:46;;;;;;;33.13;27.77;;;13.00;99.90;;;;;;4958600;28;20473;-72
2021/10/30 15:09:13;;;;;;;34.15;27.05;;;13.00;99.90;;;;;;4952032;28;20461;-72
2021/10/30 15:11:40;;;;;;;36.65;27.33;;;12.90;99.90;;;;;;4953815;28;20225;-72
2021/10/30 15:14:06;;;;;;;37.23;28.07;;;12.90;99.90;;;;;;4952194;28;20232;-72
2021/10/30 15:16:33;;;;;;;35.23;28.53;;;12.90;99.90;;;;;;4961224;28;20578;-71
2021/10/30 15:19:02;;;;;;;38.90;29.40;;;12.90;99.90;;;;;;4953349;29;20481;-72
2021/10/30 15:21:29;;;;;;;35.35;28.75;;;12.80;99.90;;;;;;4952850;28;20484;-71
2021/10/30 15:23:55;;;;;;;40.75;30.17;;;12.80;99.90;;;;;;4954025;28;20303;-72
2021/10/30 15:26:22;;;;;;;44.17;30.77;;;12.80;99.90;;;;;;4953352;29;20304;-71
2021/10/30 15:28:49;;;;;;;40.80;30.60;;;12.80;99.90;;;;;;4953339;29;20461;-72
2021/10/30 15:31:16;;;;;;;35.65;28.77;;;12.80;99.90;;;;;;4952511;29;20252;-72
2021/10/30 15:33:43;;;;;;;36.15;30.05;;;12.70;99.90;;;;;;4956779;28;20263;-72
2021/10/30 15:36:14;;;;;;;38.47;30.53;;;12.70;99.90;;;;;;4955141;28;20205;-72
2021/10/30 15:38:41;;;;;;;35.13;28.98;;;12.70;99.90;;;;;;4951711;29;20498;-72
2021/10/30 15:41:08;;;;;;;36.05;29.23;;;12.70;99.90;;;;;;4952033;29;20620;-72
2021/10/30 15:43:35;;;;;;;37.35;30.35;;;12.70;99.90;;;;;;4953139;28;20213;-72
2021/10/30 15:46:02;;;;;;;38.78;30.95;;;12.60;99.90;;;;;;4952996;29;20206;-71
2021/10/30 15:48:32;;;;;;;37.60;29.70;;;12.60;99.90;;;;;;4952502;29;20209;-72
2021/10/30 15:50:59;;;;;;;38.47;28.83;;;12.60;99.90;;;;;;4958426;28;20228;-72
2021/10/30 15:53:27;;;;;;;37.38;29.23;;;12.60;99.90;;;;;;4963377;28;20992;-71
2021/10/30 15:55:53;;;;;;;37.85;29.38;;;12.60;99.90;;;;;;4953052;29;20205;-72
2021/10/30 15:58:20;;;;;;;37.93;32.67;;;12.50;99.90;;;;;;4951654;29;20516;-72
2021/10/30 16:00:49;;;;;;;42.27;30.30;;;12.50;99.90;;;;;;4950708;29;20500;-72
2021/10/30 16:03:16;;;;;;;40.63;31.58;;;12.50;99.90;;;;;;4951997;29;20468;-72
2021/10/30 16:05:42;;;;;;;39.13;31.08;;;12.40;99.90;;;;;;4955952;28;20208;-72
2021/10/30 16:08:09;;;;;;;39.85;30.15;;;12.40;99.90;;;;;;4956529;28;20201;-72
2021/10/30 16:10:37;;;;;;;41.55;30.60;;;12.40;99.90;;;;;;4952469;29;20966;-71
2021/10/30 16:13:04;;;;;;;35.72;29.33;;;12.40;99.90;;;;;;4947064;29;20274;-71
2021/10/30 16:15:31;;;;;;;35.55;28.65;;;12.40;99.90;;;;;;4933454;29;20222;-71
2021/10/30 16:18:01;;;;;;;37.03;28.90;;;12.40;99.90;;;;;;4938113;29;20209;-72
2021/10/30 16:20:27;;;;;;;38.45;30.92;;;12.30;99.90;;;;;;4952412;29;20213;-72
2021/10/30 16:22:54;;;;;;;37.90;29.20;;;12.30;99.90;;;;;;4952147;29;20674;-72
2021/10/30 16:25:21;;;;;;;36.15;28.20;;;12.30;99.90;;;;;;4952729;28;20625;-72
2021/10/30 16:27:49;;;;;;;38.80;28.30;;;12.30;99.90;;;;;;4952044;29;20252;-72
2021/10/30 16:30:16;;;;;;;38.88;29.55;;;12.30;99.90;;;;;;4952982;29;20206;-71
2021/10/30 16:32:43;;;;;;;36.30;29.98;;;12.30;99.90;;;;;;4955805;28;20204;-72
2021/10/30 16:35:10;;;;;;;36.47;29.63;;;12.20;99.90;;;;;;4958902;28;20291;-71
2021/10/30 16:37:37;;;;;;;39.05;29.35;;;12.30;99.90;;;;;;4960920;28;20666;-71
2021/10/30 16:40:05;;;;;;;33.55;28.40;;;12.20;99.90;;;;;;4952187;29;20247;-72
2021/10/30 16:42:32;;;;;;;36.85;28.55;;;12.20;99.90;;;;;;4950708;29;20231;-72
2021/10/30 16:45:00;;;;;;;38.22;29.70;;;12.20;99.90;;;;;;4955950;28;20216;-71
2021/10/30 16:47:27;;;;;;;39.90;28.95;;;12.20;99.90;;;;;;4953849;28;20212;-72